sensor_id;sensor_type;location;lat;lon;timestamp;P1;durP1;ratioP1;P2;durP2;ratioP2
55575;SDS011;41437;45.478;9.116;2023-04-25T00:01:54;3.70;;;1.60;;
55575;SDS011;41437;45.478;9.116;2023-04-25T00:04:56;3.40;;;1.73;;
55575;SDS011;41437;45.478;9.116;2023-04-25T00:07:59;3.95;;;2.00;;
55575;SDS011;41437;45.478;9.116;2023-04-25T00:11:01;2.95;;;1.70;;
55575;SDS011;41437;45.478;9.116;2023-04-25T00:14:03;3.97;;;1.70;;
55575;SDS011;41437;45.478;9.116;2023-04-25T00:17:04;3.97;;;1.48;;
55575;SDS011;41437;45.478;9.116;2023-04-25T00:20:06;3.92;;;1.73;;
55575;SDS011;41437;45.478;9.116;2023-04-25T00:23:09;3.88;;;1.55;;
55575;SDS011;41437;45.478;9.116;2023-04-25T00:26:12;3.22;;;1.63;;
55575;SDS011;41437;45.478;9.116;2023-04-25T00:29:13;4.30;;;1.50;;
55575;SDS011;41437;45.478;9.116;2023-04-25T00:32:15;3.88;;;1.58;;
55575;SDS011;41437;45.478;9.116;2023-04-25T00:35:16;3.00;;;1.50;;
55575;SDS011;41437;45.478;9.116;2023-04-25T00:38:17;4.38;;;1.95;;
55575;SDS011;41437;45.478;9.116;2023-04-25T00:41:20;3.70;;;1.50;;
55575;SDS011;41437;45.478;9.116;2023-04-25T00:44:23;3.30;;;1.45;;
55575;SDS011;41437;45.478;9.116;2023-04-25T00:47:25;3.78;;;1.50;;
55575;SDS011;41437;45.478;9.116;2023-04-25T00:50:26;3.70;;;1.60;;
55575;SDS011;41437;45.478;9.116;2023-04-25T00:53:27;4.45;;;1.70;;
55575;SDS011;41437;45.478;9.116;2023-04-25T00:56:30;4.15;;;1.63;;
55575;SDS011;41437;45.478;9.116;2023-04-25T00:59:32;3.15;;;1.55;;
55575;SDS011;41437;45.478;9.116;2023-04-25T01:02:34;3.63;;;1.55;;
55575;SDS011;41437;45.478;9.116;2023-04-25T01:05:36;2.92;;;1.60;;
55575;SDS011;41437;45.478;9.116;2023-04-25T01:08:38;3.17;;;1.60;;
55575;SDS011;41437;45.478;9.116;2023-04-25T01:11:41;3.40;;;1.65;;
55575;SDS011;41437;45.478;9.116;2023-04-25T01:14:42;3.60;;;1.60;;
55575;SDS011;41437;45.478;9.116;2023-04-25T01:17:44;3.72;;;1.90;;
55575;SDS011;41437;45.478;9.116;2023-04-25T01:20:46;4.25;;;2.00;;
55575;SDS011;41437;45.478;9.116;2023-04-25T01:23:49;4.70;;;1.92;;
55575;SDS011;41437;45.478;9.116;2023-04-25T01:26:50;3.83;;;1.70;;
55575;SDS011;41437;45.478;9.116;2023-04-25T01:29:53;4.97;;;1.80;;
55575;SDS011;41437;45.478;9.116;2023-04-25T01:32:55;3.58;;;1.70;;
55575;SDS011;41437;45.478;9.116;2023-04-25T01:35:56;3.88;;;1.80;;
55575;SDS011;41437;45.478;9.116;2023-04-25T01:38:59;3.92;;;1.67;;
55575;SDS011;41437;45.478;9.116;2023-04-25T01:42:01;4.28;;;1.70;;
55575;SDS011;41437;45.478;9.116;2023-04-25T01:45:02;3.05;;;1.60;;
55575;SDS011;41437;45.478;9.116;2023-04-25T01:48:04;3.45;;;1.80;;
55575;SDS011;41437;45.478;9.116;2023-04-25T01:51:05;8.60;;;1.75;;
55575;SDS011;41437;45.478;9.116;2023-04-25T01:54:08;4.63;;;2.03;;
55575;SDS011;41437;45.478;9.116;2023-04-25T02:00:12;3.63;;;2.10;;
55575;SDS011;41437;45.478;9.116;2023-04-25T02:03:14;4.93;;;2.20;;
55575;SDS011;41437;45.478;9.116;2023-04-25T02:06:15;5.55;;;2.25;;
55575;SDS011;41437;45.478;9.116;2023-04-25T02:09:18;3.60;;;1.90;;
55575;SDS011;41437;45.478;9.116;2023-04-25T02:12:20;8.82;;;2.55;;
55575;SDS011;41437;45.478;9.116;2023-04-25T02:15:21;5.97;;;2.35;;
55575;SDS011;41437;45.478;9.116;2023-04-25T02:18:22;3.97;;;2.10;;
55575;SDS011;41437;45.478;9.116;2023-04-25T02:21:23;4.43;;;2.35;;
55575;SDS011;41437;45.478;9.116;2023-04-25T02:24:28;4.88;;;2.00;;
55575;SDS011;41437;45.478;9.116;2023-04-25T02:27:29;4.93;;;2.53;;
55575;SDS011;41437;45.478;9.116;2023-04-25T02:30:30;4.78;;;2.45;;
55575;SDS011;41437;45.478;9.116;2023-04-25T02:33:32;4.60;;;2.40;;
55575;SDS011;41437;45.478;9.116;2023-04-25T02:36:34;4.93;;;2.50;;
55575;SDS011;41437;45.478;9.116;2023-04-25T02:39:37;4.25;;;2.25;;
55575;SDS011;41437;45.478;9.116;2023-04-25T02:42:38;5.07;;;2.50;;
55575;SDS011;41437;45.478;9.116;2023-04-25T02:45:39;5.53;;;2.47;;
55575;SDS011;41437;45.478;9.116;2023-04-25T02:48:41;3.90;;;2.20;;
55575;SDS011;41437;45.478;9.116;2023-04-25T02:51:42;4.25;;;2.58;;
55575;SDS011;41437;45.478;9.116;2023-04-25T02:54:45;6.55;;;2.40;;
55575;SDS011;41437;45.478;9.116;2023-04-25T02:57:46;6.15;;;2.70;;
55575;SDS011;41437;45.478;9.116;2023-04-25T03:00:47;5.30;;;2.33;;
55575;SDS011;41437;45.478;9.116;2023-04-25T03:03:49;3.88;;;2.38;;
55575;SDS011;41437;45.478;9.116;2023-04-25T03:06:50;4.35;;;2.60;;
55575;SDS011;41437;45.478;9.116;2023-04-25T03:09:53;3.85;;;2.28;;
55575;SDS011;41437;45.478;9.116;2023-04-25T03:15:56;6.80;;;2.60;;
55575;SDS011;41437;45.478;9.116;2023-04-25T03:18:58;3.92;;;2.30;;
55575;SDS011;41437;45.478;9.116;2023-04-25T03:21:59;4.68;;;2.40;;
55575;SDS011;41437;45.478;9.116;2023-04-25T03:25:02;3.92;;;2.40;;
55575;SDS011;41437;45.478;9.116;2023-04-25T03:28:03;5.28;;;2.60;;
55575;SDS011;41437;45.478;9.116;2023-04-25T03:31:05;5.13;;;2.42;;
55575;SDS011;41437;45.478;9.116;2023-04-25T03:34:06;4.80;;;2.30;;
55575;SDS011;41437;45.478;9.116;2023-04-25T03:37:08;4.05;;;2.22;;
55575;SDS011;41437;45.478;9.116;2023-04-25T03:40:10;5.50;;;2.30;;
55575;SDS011;41437;45.478;9.116;2023-04-25T03:43:12;4.65;;;2.25;;
55575;SDS011;41437;45.478;9.116;2023-04-25T03:46:13;4.95;;;2.65;;
55575;SDS011;41437;45.478;9.116;2023-04-25T03:49:14;5.20;;;2.45;;
55575;SDS011;41437;45.478;9.116;2023-04-25T03:52:16;5.25;;;2.60;;
55575;SDS011;41437;45.478;9.116;2023-04-25T03:55:18;6.03;;;2.50;;
55575;SDS011;41437;45.478;9.116;2023-04-25T03:58:20;4.07;;;2.30;;
55575;SDS011;41437;45.478;9.116;2023-04-25T04:01:23;4.45;;;2.35;;
55575;SDS011;41437;45.478;9.116;2023-04-25T04:04:25;6.28;;;2.30;;
55575;SDS011;41437;45.478;9.116;2023-04-25T04:07:26;5.95;;;2.30;;
55575;SDS011;41437;45.478;9.116;2023-04-25T04:10:29;4.80;;;2.00;;
55575;SDS011;41437;45.478;9.116;2023-04-25T04:13:30;4.10;;;2.38;;
55575;SDS011;41437;45.478;9.116;2023-04-25T04:16:31;3.90;;;2.30;;
55575;SDS011;41437;45.478;9.116;2023-04-25T04:19:33;3.75;;;2.20;;
55575;SDS011;41437;45.478;9.116;2023-04-25T04:22:34;4.55;;;2.05;;
55575;SDS011;41437;45.478;9.116;2023-04-25T04:25:37;4.32;;;2.25;;
55575;SDS011;41437;45.478;9.116;2023-04-25T04:28:39;3.78;;;2.13;;
55575;SDS011;41437;45.478;9.116;2023-04-25T04:31:41;4.45;;;2.40;;
55575;SDS011;41437;45.478;9.116;2023-04-25T04:34:42;4.38;;;2.13;;
55575;SDS011;41437;45.478;9.116;2023-04-25T04:37:43;5.82;;;2.40;;
55575;SDS011;41437;45.478;9.116;2023-04-25T04:40:47;4.65;;;2.63;;
55575;SDS011;41437;45.478;9.116;2023-04-25T04:43:48;4.20;;;2.15;;
55575;SDS011;41437;45.478;9.116;2023-04-25T04:46:49;4.90;;;2.35;;
55575;SDS011;41437;45.478;9.116;2023-04-25T04:49:51;3.78;;;2.20;;
55575;SDS011;41437;45.478;9.116;2023-04-25T04:52:52;4.72;;;2.38;;
55575;SDS011;41437;45.478;9.116;2023-04-25T04:55:56;4.55;;;2.45;;
55575;SDS011;41437;45.478;9.116;2023-04-25T04:58:58;4.75;;;2.50;;
55575;SDS011;41437;45.478;9.116;2023-04-25T05:01:59;4.15;;;2.47;;
55575;SDS011;41437;45.478;9.116;2023-04-25T05:05:01;5.25;;;2.42;;
55575;SDS011;41437;45.478;9.116;2023-04-25T05:08:02;4.20;;;2.50;;
55575;SDS011;41437;45.478;9.116;2023-04-25T05:11:05;5.22;;;2.63;;
55575;SDS011;41437;45.478;9.116;2023-04-25T05:14:06;5.70;;;2.75;;
55575;SDS011;41437;45.478;9.116;2023-04-25T05:17:07;5.05;;;2.70;;
55575;SDS011;41437;45.478;9.116;2023-04-25T05:20:09;4.55;;;2.40;;
55575;SDS011;41437;45.478;9.116;2023-04-25T05:23:10;4.80;;;2.60;;
55575;SDS011;41437;45.478;9.116;2023-04-25T05:26:13;4.25;;;2.45;;
55575;SDS011;41437;45.478;9.116;2023-04-25T05:29:14;3.80;;;2.20;;
55575;SDS011;41437;45.478;9.116;2023-04-25T05:32:16;4.38;;;2.38;;
55575;SDS011;41437;45.478;9.116;2023-04-25T05:35:17;3.58;;;2.08;;
55575;SDS011;41437;45.478;9.116;2023-04-25T05:38:19;4.55;;;2.03;;
55575;SDS011;41437;45.478;9.116;2023-04-25T05:41:21;4.72;;;2.30;;
55575;SDS011;41437;45.478;9.116;2023-04-25T05:44:23;3.70;;;2.17;;
55575;SDS011;41437;45.478;9.116;2023-04-25T05:47:24;4.93;;;2.20;;
55575;SDS011;41437;45.478;9.116;2023-04-25T05:50:25;3.75;;;1.95;;
55575;SDS011;41437;45.478;9.116;2023-04-25T05:53:27;3.95;;;1.90;;
55575;SDS011;41437;45.478;9.116;2023-04-25T05:56:29;5.43;;;1.85;;
55575;SDS011;41437;45.478;9.116;2023-04-25T05:59:31;4.55;;;2.03;;
55575;SDS011;41437;45.478;9.116;2023-04-25T06:02:32;4.22;;;1.90;;
55575;SDS011;41437;45.478;9.116;2023-04-25T06:05:33;4.72;;;1.88;;
55575;SDS011;41437;45.478;9.116;2023-04-25T06:08:35;3.63;;;1.90;;
55575;SDS011;41437;45.478;9.116;2023-04-25T06:11:38;4.80;;;1.95;;
55575;SDS011;41437;45.478;9.116;2023-04-25T06:14:40;4.57;;;2.10;;
55575;SDS011;41437;45.478;9.116;2023-04-25T06:17:41;5.40;;;1.92;;
55575;SDS011;41437;45.478;9.116;2023-04-25T06:20:43;4.10;;;2.10;;
55575;SDS011;41437;45.478;9.116;2023-04-25T06:23:44;3.25;;;1.73;;
55575;SDS011;41437;45.478;9.116;2023-04-25T06:26:47;3.95;;;1.70;;
55575;SDS011;41437;45.478;9.116;2023-04-25T06:29:48;4.25;;;2.20;;
55575;SDS011;41437;45.478;9.116;2023-04-25T06:32:49;4.85;;;2.20;;
55575;SDS011;41437;45.478;9.116;2023-04-25T06:35:51;3.83;;;2.13;;
55575;SDS011;41437;45.478;9.116;2023-04-25T06:38:52;3.88;;;2.22;;
55575;SDS011;41437;45.478;9.116;2023-04-25T06:41:55;4.65;;;2.17;;
55575;SDS011;41437;45.478;9.116;2023-04-25T06:44:57;5.90;;;2.13;;
55575;SDS011;41437;45.478;9.116;2023-04-25T06:47:58;3.85;;;1.73;;
55575;SDS011;41437;45.478;9.116;2023-04-25T06:50:59;3.80;;;1.80;;
55575;SDS011;41437;45.478;9.116;2023-04-25T06:54:01;3.72;;;1.95;;
55575;SDS011;41437;45.478;9.116;2023-04-25T06:57:05;4.13;;;1.80;;
55575;SDS011;41437;45.478;9.116;2023-04-25T07:00:07;3.20;;;1.52;;
55575;SDS011;41437;45.478;9.116;2023-04-25T07:03:09;3.40;;;1.60;;
55575;SDS011;41437;45.478;9.116;2023-04-25T07:06:10;3.70;;;1.60;;
55575;SDS011;41437;45.478;9.116;2023-04-25T07:09:12;5.28;;;1.77;;
55575;SDS011;41437;45.478;9.116;2023-04-25T07:12:15;3.75;;;1.73;;
55575;SDS011;41437;45.478;9.116;2023-04-25T07:15:16;5.45;;;1.70;;
55575;SDS011;41437;45.478;9.116;2023-04-25T07:18:17;4.43;;;1.60;;
55575;SDS011;41437;45.478;9.116;2023-04-25T07:21:19;3.47;;;1.50;;
55575;SDS011;41437;45.478;9.116;2023-04-25T07:24:20;3.65;;;1.60;;
55575;SDS011;41437;45.478;9.116;2023-04-25T07:27:23;4.72;;;1.80;;
55575;SDS011;41437;45.478;9.116;2023-04-25T07:30:24;4.07;;;1.80;;
55575;SDS011;41437;45.478;9.116;2023-04-25T07:33:26;3.95;;;1.75;;
55575;SDS011;41437;45.478;9.116;2023-04-25T07:36:28;4.07;;;1.90;;
55575;SDS011;41437;45.478;9.116;2023-04-25T07:39:30;4.50;;;2.05;;
55575;SDS011;41437;45.478;9.116;2023-04-25T07:42:33;4.13;;;1.92;;
55575;SDS011;41437;45.478;9.116;2023-04-25T07:45:34;3.90;;;1.90;;
55575;SDS011;41437;45.478;9.116;2023-04-25T07:48:36;3.58;;;2.00;;
55575;SDS011;41437;45.478;9.116;2023-04-25T07:51:37;4.80;;;2.20;;
55575;SDS011;41437;45.478;9.116;2023-04-25T07:54:39;5.00;;;2.38;;
55575;SDS011;41437;45.478;9.116;2023-04-25T07:57:41;3.67;;;2.03;;
55575;SDS011;41437;45.478;9.116;2023-04-25T08:00:43;3.60;;;1.98;;
55575;SDS011;41437;45.478;9.116;2023-04-25T08:03:44;5.88;;;2.58;;
55575;SDS011;41437;45.478;9.116;2023-04-25T08:06:46;4.88;;;2.50;;
55575;SDS011;41437;45.478;9.116;2023-04-25T08:09:48;4.40;;;2.53;;
55575;SDS011;41437;45.478;9.116;2023-04-25T08:12:51;5.40;;;2.60;;
55575;SDS011;41437;45.478;9.116;2023-04-25T08:15:52;5.03;;;2.67;;
55575;SDS011;41437;45.478;9.116;2023-04-25T08:18:53;5.63;;;2.70;;
55575;SDS011;41437;45.478;9.116;2023-04-25T08:21:55;4.35;;;2.58;;
55575;SDS011;41437;45.478;9.116;2023-04-25T08:24:56;6.10;;;2.75;;
55575;SDS011;41437;45.478;9.116;2023-04-25T08:27:59;4.80;;;2.88;;
55575;SDS011;41437;45.478;9.116;2023-04-25T08:31:02;4.47;;;2.72;;
55575;SDS011;41437;45.478;9.116;2023-04-25T08:34:04;5.28;;;3.28;;
55575;SDS011;41437;45.478;9.116;2023-04-25T08:37:05;5.82;;;3.17;;
55575;SDS011;41437;45.478;9.116;2023-04-25T08:40:08;4.65;;;2.72;;
55575;SDS011;41437;45.478;9.116;2023-04-25T08:43:13;4.50;;;3.10;;
55575;SDS011;41437;45.478;9.116;2023-04-25T08:46:15;5.07;;;3.10;;
55575;SDS011;41437;45.478;9.116;2023-04-25T08:49:18;5.13;;;2.83;;
55575;SDS011;41437;45.478;9.116;2023-04-25T08:52:22;4.93;;;3.10;;
55575;SDS011;41437;45.478;9.116;2023-04-25T08:55:24;3.70;;;2.15;;
55575;SDS011;41437;45.478;9.116;2023-04-25T08:58:27;4.97;;;2.58;;
55575;SDS011;41437;45.478;9.116;2023-04-25T09:01:28;3.88;;;2.10;;
55575;SDS011;41437;45.478;9.116;2023-04-25T09:04:30;4.97;;;2.10;;
55575;SDS011;41437;45.478;9.116;2023-04-25T09:07:31;3.97;;;2.08;;
55575;SDS011;41437;45.478;9.116;2023-04-25T09:10:33;3.53;;;1.77;;
55575;SDS011;41437;45.478;9.116;2023-04-25T09:13:36;4.45;;;2.03;;
55575;SDS011;41437;45.478;9.116;2023-04-25T09:16:44;3.70;;;2.28;;
55575;SDS011;41437;45.478;9.116;2023-04-25T09:20:04;4.65;;;2.00;;
55575;SDS011;41437;45.478;9.116;2023-04-25T09:23:06;5.82;;;2.10;;
55575;SDS011;41437;45.478;9.116;2023-04-25T09:26:08;5.95;;;2.05;;
55575;SDS011;41437;45.478;9.116;2023-04-25T09:29:11;4.85;;;2.40;;
55575;SDS011;41437;45.478;9.116;2023-04-25T09:32:13;5.07;;;2.17;;
55575;SDS011;41437;45.478;9.116;2023-04-25T09:35:23;6.43;;;2.60;;
55575;SDS011;41437;45.478;9.116;2023-04-25T09:38:25;7.45;;;2.53;;
55575;SDS011;41437;45.478;9.116;2023-04-25T09:41:26;6.20;;;2.53;;
55575;SDS011;41437;45.478;9.116;2023-04-25T09:44:29;5.45;;;2.47;;
55575;SDS011;41437;45.478;9.116;2023-04-25T09:47:30;5.13;;;2.60;;
55575;SDS011;41437;45.478;9.116;2023-04-25T09:50:32;5.13;;;2.20;;
55575;SDS011;41437;45.478;9.116;2023-04-25T09:53:33;6.35;;;2.40;;
55575;SDS011;41437;45.478;9.116;2023-04-25T09:56:35;6.80;;;2.38;;
55575;SDS011;41437;45.478;9.116;2023-04-25T09:59:38;4.90;;;2.30;;
55575;SDS011;41437;45.478;9.116;2023-04-25T10:02:40;5.47;;;2.53;;
55575;SDS011;41437;45.478;9.116;2023-04-25T10:05:43;7.00;;;2.60;;
55575;SDS011;41437;45.478;9.116;2023-04-25T10:08:45;5.18;;;2.53;;
55575;SDS011;41437;45.478;9.116;2023-04-25T10:11:49;4.88;;;2.60;;
55575;SDS011;41437;45.478;9.116;2023-04-25T10:14:52;5.75;;;2.80;;
55575;SDS011;41437;45.478;9.116;2023-04-25T10:17:53;5.30;;;3.10;;
55575;SDS011;41437;45.478;9.116;2023-04-25T10:20:55;5.40;;;2.58;;
55575;SDS011;41437;45.478;9.116;2023-04-25T10:23:57;7.70;;;2.83;;
55575;SDS011;41437;45.478;9.116;2023-04-25T10:26:58;7.35;;;2.50;;
55575;SDS011;41437;45.478;9.116;2023-04-25T10:30:03;5.88;;;2.88;;
55575;SDS011;41437;45.478;9.116;2023-04-25T10:36:10;5.22;;;2.50;;
55575;SDS011;41437;45.478;9.116;2023-04-25T10:39:11;6.30;;;2.58;;
55575;SDS011;41437;45.478;9.116;2023-04-25T10:42:13;5.68;;;2.50;;
55575;SDS011;41437;45.478;9.116;2023-04-25T10:45:15;7.22;;;2.45;;
55575;SDS011;41437;45.478;9.116;2023-04-25T10:48:24;5.53;;;2.70;;
55575;SDS011;41437;45.478;9.116;2023-04-25T10:51:26;7.22;;;2.40;;
55575;SDS011;41437;45.478;9.116;2023-04-25T10:54:28;5.95;;;2.60;;
55575;SDS011;41437;45.478;9.116;2023-04-25T10:57:30;5.72;;;2.50;;
55575;SDS011;41437;45.478;9.116;2023-04-25T11:00:33;5.25;;;2.60;;
55575;SDS011;41437;45.478;9.116;2023-04-25T11:03:41;5.47;;;2.58;;
55575;SDS011;41437;45.478;9.116;2023-04-25T11:06:45;4.88;;;2.45;;
55575;SDS011;41437;45.478;9.116;2023-04-25T11:09:47;7.35;;;2.63;;
55575;SDS011;41437;45.478;9.116;2023-04-25T11:12:49;6.80;;;3.00;;
55575;SDS011;41437;45.478;9.116;2023-04-25T11:15:52;5.78;;;2.53;;
55575;SDS011;41437;45.478;9.116;2023-04-25T11:18:56;5.70;;;2.77;;
55575;SDS011;41437;45.478;9.116;2023-04-25T11:21:58;7.38;;;2.70;;
55575;SDS011;41437;45.478;9.116;2023-04-25T11:25:04;6.15;;;2.50;;
55575;SDS011;41437;45.478;9.116;2023-04-25T11:28:05;5.40;;;2.42;;
55575;SDS011;41437;45.478;9.116;2023-04-25T11:31:08;5.57;;;2.30;;
55575;SDS011;41437;45.478;9.116;2023-04-25T11:34:10;5.72;;;2.42;;
55575;SDS011;41437;45.478;9.116;2023-04-25T11:37:13;5.18;;;2.80;;
55575;SDS011;41437;45.478;9.116;2023-04-25T11:40:14;6.15;;;2.75;;
55575;SDS011;41437;45.478;9.116;2023-04-25T11:43:16;6.53;;;2.90;;
55575;SDS011;41437;45.478;9.116;2023-04-25T11:46:19;5.10;;;2.50;;
55575;SDS011;41437;45.478;9.116;2023-04-25T11:49:21;5.25;;;2.60;;
55575;SDS011;41437;45.478;9.116;2023-04-25T11:52:24;4.43;;;2.30;;
55575;SDS011;41437;45.478;9.116;2023-04-25T11:55:26;5.80;;;2.58;;
55575;SDS011;41437;45.478;9.116;2023-04-25T11:58:31;5.60;;;2.38;;
55575;SDS011;41437;45.478;9.116;2023-04-25T12:01:34;4.00;;;2.10;;
55575;SDS011;41437;45.478;9.116;2023-04-25T12:04:36;4.00;;;2.25;;
55575;SDS011;41437;45.478;9.116;2023-04-25T12:07:38;5.88;;;2.40;;
55575;SDS011;41437;45.478;9.116;2023-04-25T12:10:42;4.70;;;2.38;;
55575;SDS011;41437;45.478;9.116;2023-04-25T12:13:43;5.47;;;2.27;;
55575;SDS011;41437;45.478;9.116;2023-04-25T12:16:49;6.38;;;2.72;;
55575;SDS011;41437;45.478;9.116;2023-04-25T12:19:51;6.30;;;2.58;;
55575;SDS011;41437;45.478;9.116;2023-04-25T12:22:52;4.85;;;2.28;;
55575;SDS011;41437;45.478;9.116;2023-04-25T12:25:54;4.53;;;2.40;;
55575;SDS011;41437;45.478;9.116;2023-04-25T12:28:56;4.95;;;2.13;;
55575;SDS011;41437;45.478;9.116;2023-04-25T12:31:58;5.03;;;2.25;;
55575;SDS011;41437;45.478;9.116;2023-04-25T12:35:01;6.97;;;2.10;;
55575;SDS011;41437;45.478;9.116;2023-04-25T12:38:03;7.60;;;2.50;;
55575;SDS011;41437;45.478;9.116;2023-04-25T12:41:05;6.97;;;2.00;;
55575;SDS011;41437;45.478;9.116;2023-04-25T12:44:06;7.13;;;2.20;;
55575;SDS011;41437;45.478;9.116;2023-04-25T12:47:09;5.82;;;2.22;;
55575;SDS011;41437;45.478;9.116;2023-04-25T12:50:10;4.37;;;2.10;;
55575;SDS011;41437;45.478;9.116;2023-04-25T12:53:12;4.05;;;1.92;;
55575;SDS011;41437;45.478;9.116;2023-04-25T12:56:13;4.97;;;2.00;;
55575;SDS011;41437;45.478;9.116;2023-04-25T12:59:14;7.13;;;2.03;;
55575;SDS011;41437;45.478;9.116;2023-04-25T13:02:17;4.82;;;2.42;;
55575;SDS011;41437;45.478;9.116;2023-04-25T13:05:18;4.53;;;1.90;;
55575;SDS011;41437;45.478;9.116;2023-04-25T13:08:20;5.25;;;1.70;;
55575;SDS011;41437;45.478;9.116;2023-04-25T13:11:21;4.00;;;1.55;;
55575;SDS011;41437;45.478;9.116;2023-04-25T13:14:23;2.85;;;1.10;;
55575;SDS011;41437;45.478;9.116;2023-04-25T13:17:26;3.97;;;1.45;;
55575;SDS011;41437;45.478;9.116;2023-04-25T13:20:27;6.15;;;1.60;;
55575;SDS011;41437;45.478;9.116;2023-04-25T13:23:28;5.50;;;1.50;;
55575;SDS011;41437;45.478;9.116;2023-04-25T13:26:30;4.90;;;1.27;;
55575;SDS011;41437;45.478;9.116;2023-04-25T13:29:31;3.40;;;1.05;;
55575;SDS011;41437;45.478;9.116;2023-04-25T13:32:37;3.55;;;1.10;;
55575;SDS011;41437;45.478;9.116;2023-04-25T13:35:38;1.98;;;0.80;;
55575;SDS011;41437;45.478;9.116;2023-04-25T13:38:40;2.17;;;0.98;;
55575;SDS011;41437;45.478;9.116;2023-04-25T13:41:43;2.00;;;0.95;;
55575;SDS011;41437;45.478;9.116;2023-04-25T13:44:45;2.00;;;0.90;;
55575;SDS011;41437;45.478;9.116;2023-04-25T13:47:47;3.15;;;1.20;;
55575;SDS011;41437;45.478;9.116;2023-04-25T13:50:49;2.22;;;0.90;;
55575;SDS011;41437;45.478;9.116;2023-04-25T13:53:50;3.08;;;1.10;;
55575;SDS011;41437;45.478;9.116;2023-04-25T13:56:52;1.83;;;0.88;;
55575;SDS011;41437;45.478;9.116;2023-04-25T13:59:58;2.08;;;1.00;;
55575;SDS011;41437;45.478;9.116;2023-04-25T14:03:06;2.40;;;1.00;;
55575;SDS011;41437;45.478;9.116;2023-04-25T14:06:08;3.38;;;1.00;;
55575;SDS011;41437;45.478;9.116;2023-04-25T14:09:09;2.50;;;0.90;;
55575;SDS011;41437;45.478;9.116;2023-04-25T14:15:14;2.85;;;1.00;;
55575;SDS011;41437;45.478;9.116;2023-04-25T14:18:17;3.10;;;1.00;;
55575;SDS011;41437;45.478;9.116;2023-04-25T14:21:18;4.00;;;1.20;;
55575;SDS011;41437;45.478;9.116;2023-04-25T14:24:20;2.30;;;1.02;;
55575;SDS011;41437;45.478;9.116;2023-04-25T14:27:22;3.42;;;1.10;;
55575;SDS011;41437;45.478;9.116;2023-04-25T14:30:23;2.58;;;1.02;;
55575;SDS011;41437;45.478;9.116;2023-04-25T14:33:26;2.05;;;1.10;;
55575;SDS011;41437;45.478;9.116;2023-04-25T14:36:27;2.40;;;0.90;;
55575;SDS011;41437;45.478;9.116;2023-04-25T14:39:29;2.63;;;1.20;;
55575;SDS011;41437;45.478;9.116;2023-04-25T14:42:30;3.17;;;1.05;;
55575;SDS011;41437;45.478;9.116;2023-04-25T14:45:33;2.75;;;1.10;;
55575;SDS011;41437;45.478;9.116;2023-04-25T14:48:35;2.55;;;1.20;;
55575;SDS011;41437;45.478;9.116;2023-04-25T14:51:37;3.53;;;1.10;;
55575;SDS011;41437;45.478;9.116;2023-04-25T14:54:38;3.40;;;1.20;;
55575;SDS011;41437;45.478;9.116;2023-04-25T14:57:40;3.05;;;0.95;;
55575;SDS011;41437;45.478;9.116;2023-04-25T15:00:41;3.35;;;1.23;;
55575;SDS011;41437;45.478;9.116;2023-04-25T15:03:44;3.75;;;1.13;;
55575;SDS011;41437;45.478;9.116;2023-04-25T15:06:46;3.67;;;1.40;;
55575;SDS011;41437;45.478;9.116;2023-04-25T15:09:47;2.65;;;1.00;;
55575;SDS011;41437;45.478;9.116;2023-04-25T15:12:49;2.58;;;1.23;;
55575;SDS011;41437;45.478;9.116;2023-04-25T15:15:50;3.67;;;1.50;;
55575;SDS011;41437;45.478;9.116;2023-04-25T15:18:55;2.10;;;1.10;;
55575;SDS011;41437;45.478;9.116;2023-04-25T15:21:56;3.07;;;1.20;;
55575;SDS011;41437;45.478;9.116;2023-04-25T15:25:00;3.22;;;1.10;;
55575;SDS011;41437;45.478;9.116;2023-04-25T15:28:01;2.80;;;1.17;;
55575;SDS011;41437;45.478;9.116;2023-04-25T15:31:03;2.70;;;1.20;;
55575;SDS011;41437;45.478;9.116;2023-04-25T15:34:06;2.45;;;0.95;;
55575;SDS011;41437;45.478;9.116;2023-04-25T15:37:08;3.90;;;1.10;;
55575;SDS011;41437;45.478;9.116;2023-04-25T15:40:10;3.78;;;1.20;;
55575;SDS011;41437;45.478;9.116;2023-04-25T15:43:12;4.90;;;1.90;;
55575;SDS011;41437;45.478;9.116;2023-04-25T15:46:16;3.58;;;1.30;;
55575;SDS011;41437;45.478;9.116;2023-04-25T15:49:18;3.92;;;1.70;;
55575;SDS011;41437;45.478;9.116;2023-04-25T15:52:21;2.97;;;1.23;;
55575;SDS011;41437;45.478;9.116;2023-04-25T15:55:23;2.03;;;1.10;;
55575;SDS011;41437;45.478;9.116;2023-04-25T15:58:25;3.90;;;1.40;;
55575;SDS011;41437;45.478;9.116;2023-04-25T16:01:27;4.00;;;1.52;;
55575;SDS011;41437;45.478;9.116;2023-04-25T16:04:31;3.00;;;1.20;;
55575;SDS011;41437;45.478;9.116;2023-04-25T16:07:34;4.45;;;1.40;;
55575;SDS011;41437;45.478;9.116;2023-04-25T16:10:35;2.40;;;1.10;;
55575;SDS011;41437;45.478;9.116;2023-04-25T16:13:39;5.30;;;1.90;;
55575;SDS011;41437;45.478;9.116;2023-04-25T16:16:46;4.00;;;1.52;;
55575;SDS011;41437;45.478;9.116;2023-04-25T16:19:48;8.15;;;3.83;;
55575;SDS011;41437;45.478;9.116;2023-04-25T16:22:50;9.75;;;5.03;;
55575;SDS011;41437;45.478;9.116;2023-04-25T16:25:52;2.95;;;1.50;;
55575;SDS011;41437;45.478;9.116;2023-04-25T16:28:53;2.72;;;1.30;;
55575;SDS011;41437;45.478;9.116;2023-04-25T16:31:55;5.63;;;2.38;;
55575;SDS011;41437;45.478;9.116;2023-04-25T16:34:58;3.38;;;1.50;;
55575;SDS011;41437;45.478;9.116;2023-04-25T16:37:59;3.77;;;1.43;;
55575;SDS011;41437;45.478;9.116;2023-04-25T16:41:00;3.38;;;1.88;;
55575;SDS011;41437;45.478;9.116;2023-04-25T16:44:02;4.00;;;1.73;;
55575;SDS011;41437;45.478;9.116;2023-04-25T16:47:05;4.38;;;2.10;;
55575;SDS011;41437;45.478;9.116;2023-04-25T16:50:08;3.67;;;1.30;;
55575;SDS011;41437;45.478;9.116;2023-04-25T16:53:10;3.70;;;1.80;;
55575;SDS011;41437;45.478;9.116;2023-04-25T16:56:11;4.57;;;1.80;;
55575;SDS011;41437;45.478;9.116;2023-04-25T16:59:13;5.15;;;1.55;;
55575;SDS011;41437;45.478;9.116;2023-04-25T17:02:14;3.65;;;1.33;;
55575;SDS011;41437;45.478;9.116;2023-04-25T17:05:17;3.55;;;1.23;;
55575;SDS011;41437;45.478;9.116;2023-04-25T17:08:19;4.23;;;1.30;;
55575;SDS011;41437;45.478;9.116;2023-04-25T17:11:20;3.22;;;1.40;;
55575;SDS011;41437;45.478;9.116;2023-04-25T17:14:21;4.03;;;1.30;;
55575;SDS011;41437;45.478;9.116;2023-04-25T17:17:22;3.20;;;1.20;;
55575;SDS011;41437;45.478;9.116;2023-04-25T17:20:26;2.80;;;1.10;;
55575;SDS011;41437;45.478;9.116;2023-04-25T17:23:28;4.38;;;2.20;;
55575;SDS011;41437;45.478;9.116;2023-04-25T17:26:30;4.78;;;1.40;;
55575;SDS011;41437;45.478;9.116;2023-04-25T17:29:31;2.88;;;1.17;;
55575;SDS011;41437;45.478;9.116;2023-04-25T17:32:34;3.40;;;1.15;;
55575;SDS011;41437;45.478;9.116;2023-04-25T17:35:36;3.15;;;1.08;;
55575;SDS011;41437;45.478;9.116;2023-04-25T17:38:38;2.28;;;1.25;;
55575;SDS011;41437;45.478;9.116;2023-04-25T17:41:39;2.35;;;1.15;;
55575;SDS011;41437;45.478;9.116;2023-04-25T17:44:41;5.47;;;1.48;;
55575;SDS011;41437;45.478;9.116;2023-04-25T17:47:42;2.80;;;1.38;;
55575;SDS011;41437;45.478;9.116;2023-04-25T17:50:45;5.35;;;1.60;;
55575;SDS011;41437;45.478;9.116;2023-04-25T17:53:47;4.18;;;1.60;;
55575;SDS011;41437;45.478;9.116;2023-04-25T17:56:49;4.55;;;2.05;;
55575;SDS011;41437;45.478;9.116;2023-04-25T17:59:51;7.22;;;4.03;;
55575;SDS011;41437;45.478;9.116;2023-04-25T18:02:52;8.75;;;3.70;;
55575;SDS011;41437;45.478;9.116;2023-04-25T18:05:55;8.43;;;3.90;;
55575;SDS011;41437;45.478;9.116;2023-04-25T18:08:57;5.90;;;2.60;;
55575;SDS011;41437;45.478;9.116;2023-04-25T18:11:58;6.22;;;2.40;;
55575;SDS011;41437;45.478;9.116;2023-04-25T18:15:00;5.82;;;2.80;;
55575;SDS011;41437;45.478;9.116;2023-04-25T18:18:05;6.05;;;2.30;;
55575;SDS011;41437;45.478;9.116;2023-04-25T18:21:15;3.60;;;1.75;;
55575;SDS011;41437;45.478;9.116;2023-04-25T18:24:17;3.65;;;1.77;;
55575;SDS011;41437;45.478;9.116;2023-04-25T18:27:19;2.85;;;1.50;;
55575;SDS011;41437;45.478;9.116;2023-04-25T18:30:21;2.83;;;1.50;;